Bei Facebook empfehlenBei Twitter postenGoogle plusPinterest

Das Wetter im Erzgebirge am 03.08.2015

Wetter und Klima am 03.08.2015 Holzhau im Erzgebirge (630m ü.NN)
Letzte gemessene Temperatur und Uhrzeit der Messung23:45:00 Uhr15.30 °C
Temperatur (Maximum / Höchstwert) und Uhrzeit der Messung15:00:00 Uhr28.90 °C
Temperatur (Minimum / Tiefstwert) und Uhrzeit der Messung06:00:0011.10 °C
Errechneter Absolutwert der Temperaturschwankungen zwischen Tmin und Tmax des Tages17.80 K
Errechnete Tagesmitteltemperatur19.96563 °C
Gesamt - Niederschlag des Tages (in flüssiger Form)0.00 Liter / m²
Luftdruck (Maximum / Höchstwert) und Zeitpunkt der Messung00:00:00 Uhr1019.60 hPa
Luftdruck (Minimum / Tiefstwert) und Zeitpunkt der Messung20:30:00 Uhr1017.30 hPa
Errechneter Absolutwert der Luftdruckschwankungen des Tages2.30 hPa
Höchste gemessene Windgeschwindigkeit und Uhrzeit der Messung23:45:00 Uhr0.00 km/h
Errechnete Windhäufigkeit in Relation zu den Messwerten des Tages0.00000 %
Niedrigste Windkühle (Windchill) und Zeitpunkt der Messung06:00:00 Uhr11.10 °C
Taupunkt (Maximum / Höchstwert) und Uhrzeit der Messung08:30:00 Uhr16.10 °C
Taupunkt (Minimum / Tiefstwert) und Uhrzeit der Messung04:30:009.20 °C
Anzahl der automatisch eingelesenen Messwerte 96

Detaillierte Wetter- und Klima- Messwerte für den 03.08.2015 in Holzhau im Erzgebirge (630m ü.NN)
ZeitTemperaturLuftdruckRel. LuftfeuchteWindWindrichtungWindchillTaupunktNiederschlag l/m²
23:45:0015.30 °C1017.40 hPa78.00 %11.50 °C 
23:30:0015.60 °C1017.40 hPa77.00 %11.60 °C 
23:15:0015.90 °C1017.50 hPa77.00 %11.90 °C 
23:00:0015.90 °C1017.50 hPa76.00 %11.70 °C 
22:45:0016.20 °C1017.40 hPa76.00 %12.00 °C 
22:30:0016.50 °C1017.50 hPa75.00 %12.10 °C 
22:15:0016.90 °C1017.60 hPa73.00 %12.00 °C 
22:00:0017.20 °C1017.60 hPa73.00 %12.30 °C 
21:45:0017.40 °C1017.50 hPa72.00 %12.30 °C 
21:30:0017.80 °C1017.60 hPa69.00 %12.00 °C 
21:15:0018.60 °C1017.60 hPa66.00 %12.10 °C 
21:00:0019.70 °C1017.50 hPa64.00 %12.70 °C 
20:45:0020.90 °C1017.40 hPa60.00 %12.80 °C 
20:30:0022.30 °C1017.30 hPa58.00 %13.60 °C 
20:15:0023.60 °C1017.30 hPa54.00 %13.80 °C 
20:00:0024.90 °C1017.30 hPa53.00 %14.70 °C 
19:45:0025.50 °C1017.30 hPa49.00 %14.00 °C 
19:30:0025.60 °C1017.50 hPa48.00 %13.80 °C 
19:15:0026.10 °C1017.40 hPa48.00 %14.20 °C 
19:00:0026.30 °C1017.60 hPa48.00 %14.40 °C 
18:45:0026.70 °C1017.60 hPa47.00 %14.50 °C 
18:30:0026.90 °C1017.80 hPa47.00 %14.60 °C 
18:15:0026.90 °C1017.90 hPa47.00 %14.60 °C 
18:00:0027.20 °C1017.90 hPa47.00 %14.90 °C 
17:45:0027.30 °C1018.00 hPa47.00 %15.00 °C 
17:30:0027.20 °C1018.00 hPa47.00 %14.90 °C 
17:15:0027.30 °C1018.10 hPa46.00 %14.70 °C 
17:00:0027.40 °C1018.20 hPa45.00 %14.40 °C 
16:45:0028.50 °C1018.10 hPa45.00 %15.40 °C 
16:30:0028.10 °C1018.20 hPa45.00 %15.10 °C 
16:15:0028.40 °C1018.40 hPa44.00 %15.00 °C 
16:00:0028.30 °C1018.30 hPa45.00 %15.20 °C 
15:45:0028.50 °C1018.40 hPa44.00 %15.10 °C 
15:30:0028.30 °C1018.30 hPa46.00 %15.60 °C 
15:15:0028.40 °C1018.40 hPa44.00 %15.00 °C 
15:00:0028.90 °C1018.40 hPa45.00 %15.80 °C 
14:45:0028.30 °C1018.50 hPa46.00 %15.60 °C 
14:30:0027.90 °C1018.50 hPa48.00 %15.90 °C 
14:15:0027.60 °C1018.50 hPa48.00 %15.60 °C 
14:00:0027.60 °C1018.60 hPa47.00 %15.30 °C 
13:45:0027.30 °C1018.60 hPa49.00 %15.60 °C 
13:30:0026.80 °C1018.60 hPa49.00 %15.20 °C 
13:15:0026.80 °C1018.80 hPa49.00 %15.20 °C 
13:00:0026.60 °C1018.80 hPa50.00 %15.30 °C 
12:45:0026.30 °C1018.80 hPa52.00 %15.70 °C 
12:30:0025.70 °C1019.00 hPa52.00 %15.10 °C 
12:15:0025.60 °C1019.10 hPa52.00 %15.00 °C 
12:00:0025.20 °C1019.10 hPa53.00 %14.90 °C 
11:45:0024.70 °C1018.90 hPa54.00 %14.80 °C 
11:30:0024.30 °C1018.90 hPa55.00 %14.70 °C 
11:15:0024.10 °C1018.90 hPa55.00 %14.50 °C 
11:00:0024.20 °C1018.80 hPa54.00 %14.30 °C 
10:45:0023.80 °C1018.80 hPa55.00 %14.20 °C 
10:30:0023.50 °C1018.90 hPa57.00 %14.50 °C 
10:15:0023.40 °C1018.80 hPa58.00 %14.70 °C 
10:00:0022.90 °C1018.70 hPa59.00 %14.50 °C 
09:45:0022.50 °C1018.80 hPa61.00 %14.60 °C 
09:30:0022.20 °C1018.70 hPa62.00 %14.60 °C 
09:15:0022.00 °C1018.70 hPa65.00 %15.10 °C 
09:00:0021.70 °C1018.70 hPa68.00 %15.50 °C 
08:45:0021.10 °C1018.70 hPa71.00 %15.60 °C 
08:30:0020.90 °C1018.60 hPa74.00 %16.10 °C 
08:15:0019.90 °C1018.70 hPa77.00 %15.70 °C 
08:00:0018.70 °C1018.70 hPa81.00 %15.40 °C 
07:45:0017.10 °C1018.70 hPa86.00 %14.70 °C 
07:30:0014.50 °C1018.70 hPa90.00 %12.90 °C 
07:15:0012.30 °C1018.80 hPa90.00 %10.70 °C 
07:00:0011.90 °C1018.70 hPa90.00 %10.30 °C 
06:45:0011.50 °C1018.70 hPa90.00 %9.90 °C 
06:30:0011.50 °C1018.60 hPa90.00 %9.90 °C 
06:15:0011.30 °C1018.60 hPa90.00 %9.70 °C 
06:00:0011.10 °C1018.60 hPa89.00 %9.40 °C 
05:45:0011.30 °C1018.70 hPa89.00 %9.60 °C 
05:30:0011.30 °C1018.70 hPa89.00 %9.60 °C 
05:15:0011.30 °C1018.50 hPa89.00 %9.60 °C 
05:00:0011.20 °C1018.40 hPa88.00 %9.30 °C 
04:45:0011.30 °C1018.40 hPa88.00 %9.40 °C 
04:30:0011.30 °C1018.40 hPa87.00 %9.20 °C 
04:15:0011.70 °C1018.60 hPa87.00 %9.60 °C 
04:00:0011.60 °C1018.60 hPa87.00 %9.50 °C 
03:45:0011.80 °C1018.80 hPa86.00 %9.50 °C 
03:30:0011.90 °C1018.70 hPa87.00 %9.80 °C 
03:15:0011.90 °C1018.70 hPa86.00 %9.60 °C 
03:00:0012.00 °C1018.70 hPa85.00 %9.60 °C 
02:45:0012.10 °C1018.80 hPa85.00 %9.70 °C 
02:30:0012.40 °C1019.00 hPa84.00 %9.80 °C 
02:15:0012.40 °C1019.00 hPa84.00 %9.80 °C 
02:00:0012.40 °C1019.00 hPa84.00 %9.80 °C 
01:45:0012.40 °C1019.10 hPa84.00 %9.80 °C 
01:30:0012.50 °C1019.10 hPa83.00 %9.70 °C 
01:15:0012.70 °C1019.30 hPa83.00 %9.90 °C 
01:00:0012.80 °C1019.50 hPa82.00 %9.80 °C 
00:45:0013.10 °C1019.50 hPa81.00 %9.90 °C 
00:30:0013.20 °C1019.40 hPa81.00 %10.00 °C 
00:15:0013.30 °C1019.50 hPa80.00 %9.90 °C 
00:00:0013.50 °C1019.60 hPa80.00 %10.10 °C 

Permanenter Link zu dieser Seite: Wetter im Erzgebirge am 03.08.2015
Performance-Info: Die Erstellung der Seite / Statistik(en) / Tabelle(n) erforderte 5 Datenbankserver-Abfrage(n) und dauerte 101 Millisekunden. (Dieser Messwert ist von der Gesamt-Auslastung des Servers abhängig.)
Erzgebirge - Wetter | Erzgebirge - Wetter (Mobilgeräte) | Komplette Klimadatenbank